sensor_id;sensor_type;location;lat;lon;timestamp;P1;durP1;ratioP1;P2;durP2;ratioP2
10537;SDS011;5317;49.048;8.468;2023-04-01T00:01:27;3.53;;;1.27;;
10537;SDS011;5317;49.048;8.468;2023-04-01T00:03:54;2.53;;;0.90;;
10537;SDS011;5317;49.048;8.468;2023-04-01T00:06:22;3.00;;;1.33;;
10537;SDS011;5317;49.048;8.468;2023-04-01T00:08:49;1.77;;;1.10;;
10537;SDS011;5317;49.048;8.468;2023-04-01T00:11:17;5.03;;;1.20;;
10537;SDS011;5317;49.048;8.468;2023-04-01T00:13:44;4.40;;;1.50;;
10537;SDS011;5317;49.048;8.468;2023-04-01T00:16:11;1.93;;;1.37;;
10537;SDS011;5317;49.048;8.468;2023-04-01T00:18:38;4.83;;;1.10;;
10537;SDS011;5317;49.048;8.468;2023-04-01T00:21:05;2.27;;;1.17;;
10537;SDS011;5317;49.048;8.468;2023-04-01T00:23:34;3.80;;;1.30;;
10537;SDS011;5317;49.048;8.468;2023-04-01T00:26:01;3.50;;;1.47;;
10537;SDS011;5317;49.048;8.468;2023-04-01T00:28:29;4.63;;;1.30;;
10537;SDS011;5317;49.048;8.468;2023-04-01T00:30:56;4.90;;;1.30;;
10537;SDS011;5317;49.048;8.468;2023-04-01T00:33:23;2.73;;;1.20;;
10537;SDS011;5317;49.048;8.468;2023-04-01T00:35:50;3.67;;;1.30;;
10537;SDS011;5317;49.048;8.468;2023-04-01T00:38:17;4.33;;;1.07;;
10537;SDS011;5317;49.048;8.468;2023-04-01T00:40:46;2.73;;;1.20;;
10537;SDS011;5317;49.048;8.468;2023-04-01T00:43:13;4.13;;;1.30;;
10537;SDS011;5317;49.048;8.468;2023-04-01T00:45:43;3.47;;;1.13;;
10537;SDS011;5317;49.048;8.468;2023-04-01T00:48:13;3.23;;;1.50;;
10537;SDS011;5317;49.048;8.468;2023-04-01T00:50:44;3.10;;;1.27;;
10537;SDS011;5317;49.048;8.468;2023-04-01T00:53:15;1.97;;;1.27;;
10537;SDS011;5317;49.048;8.468;2023-04-01T00:55:43;5.13;;;1.40;;
10537;SDS011;5317;49.048;8.468;2023-04-01T00:58:16;2.27;;;0.90;;
10537;SDS011;5317;49.048;8.468;2023-04-01T01:00:47;2.53;;;0.93;;
10537;SDS011;5317;49.048;8.468;2023-04-01T01:03:16;2.57;;;1.27;;
10537;SDS011;5317;49.048;8.468;2023-04-01T01:05:48;4.13;;;1.23;;
10537;SDS011;5317;49.048;8.468;2023-04-01T01:08:27;3.10;;;1.10;;
10537;SDS011;5317;49.048;8.468;2023-04-01T01:11:03;3.13;;;1.30;;
10537;SDS011;5317;49.048;8.468;2023-04-01T01:13:33;3.17;;;1.30;;
10537;SDS011;5317;49.048;8.468;2023-04-01T01:16:08;3.40;;;1.37;;
10537;SDS011;5317;49.048;8.468;2023-04-01T01:18:45;2.80;;;1.10;;
10537;SDS011;5317;49.048;8.468;2023-04-01T01:24:38;3.17;;;1.27;;
10537;SDS011;5317;49.048;8.468;2023-04-01T01:27:18;3.43;;;1.17;;
10537;SDS011;5317;49.048;8.468;2023-04-01T01:32:52;3.90;;;1.17;;
10537;SDS011;5317;49.048;8.468;2023-04-01T01:35:38;3.97;;;1.53;;
10537;SDS011;5317;49.048;8.468;2023-04-01T01:38:09;2.67;;;1.30;;
10537;SDS011;5317;49.048;8.468;2023-04-01T01:40:40;2.20;;;1.33;;
10537;SDS011;5317;49.048;8.468;2023-04-01T01:43:11;2.17;;;1.20;;
10537;SDS011;5317;49.048;8.468;2023-04-01T01:45:40;2.37;;;1.10;;
10537;SDS011;5317;49.048;8.468;2023-04-01T01:48:12;1.17;;;0.93;;
10537;SDS011;5317;49.048;8.468;2023-04-01T01:50:41;2.03;;;0.90;;
10537;SDS011;5317;49.048;8.468;2023-04-01T01:53:11;1.90;;;1.17;;
10537;SDS011;5317;49.048;8.468;2023-04-01T01:55:39;1.93;;;0.90;;
10537;SDS011;5317;49.048;8.468;2023-04-01T01:58:09;1.70;;;0.93;;
10537;SDS011;5317;49.048;8.468;2023-04-01T02:00:40;1.73;;;0.70;;
10537;SDS011;5317;49.048;8.468;2023-04-01T02:03:10;2.10;;;1.07;;
10537;SDS011;5317;49.048;8.468;2023-04-01T02:05:39;1.20;;;1.10;;
10537;SDS011;5317;49.048;8.468;2023-04-01T02:08:09;2.40;;;0.90;;
10537;SDS011;5317;49.048;8.468;2023-04-01T02:10:41;1.43;;;1.03;;
10537;SDS011;5317;49.048;8.468;2023-04-01T02:13:14;2.87;;;0.80;;
10537;SDS011;5317;49.048;8.468;2023-04-01T02:15:46;1.07;;;0.60;;
10537;SDS011;5317;49.048;8.468;2023-04-01T02:18:15;1.70;;;0.83;;
10537;SDS011;5317;49.048;8.468;2023-04-01T02:20:46;2.27;;;0.87;;
10537;SDS011;5317;49.048;8.468;2023-04-01T02:23:13;0.90;;;0.40;;
10537;SDS011;5317;49.048;8.468;2023-04-01T02:25:40;1.63;;;0.60;;
10537;SDS011;5317;49.048;8.468;2023-04-01T02:28:09;1.80;;;0.60;;
10537;SDS011;5317;49.048;8.468;2023-04-01T02:30:40;0.80;;;0.60;;
10537;SDS011;5317;49.048;8.468;2023-04-01T02:33:09;2.00;;;0.80;;
10537;SDS011;5317;49.048;8.468;2023-04-01T02:35:36;0.63;;;0.63;;
10537;SDS011;5317;49.048;8.468;2023-04-01T02:38:05;2.57;;;0.80;;
10537;SDS011;5317;49.048;8.468;2023-04-01T02:40:41;1.37;;;0.53;;
10537;SDS011;5317;49.048;8.468;2023-04-01T02:43:09;0.50;;;0.50;;
10537;SDS011;5317;49.048;8.468;2023-04-01T02:45:36;1.47;;;0.70;;
10537;SDS011;5317;49.048;8.468;2023-04-01T02:48:03;0.33;;;0.33;;
10537;SDS011;5317;49.048;8.468;2023-04-01T02:50:30;1.13;;;0.63;;
10537;SDS011;5317;49.048;8.468;2023-04-01T02:52:57;0.67;;;0.60;;
10537;SDS011;5317;49.048;8.468;2023-04-01T02:55:26;1.10;;;0.50;;
10537;SDS011;5317;49.048;8.468;2023-04-01T02:57:52;1.87;;;0.80;;
10537;SDS011;5317;49.048;8.468;2023-04-01T03:00:19;1.50;;;0.53;;
10537;SDS011;5317;49.048;8.468;2023-04-01T03:02:46;1.90;;;0.70;;
10537;SDS011;5317;49.048;8.468;2023-04-01T03:05:13;0.63;;;0.50;;
10537;SDS011;5317;49.048;8.468;2023-04-01T03:07:40;1.97;;;0.60;;
10537;SDS011;5317;49.048;8.468;2023-04-01T03:10:07;1.23;;;0.83;;
10537;SDS011;5317;49.048;8.468;2023-04-01T03:12:36;2.07;;;1.10;;
10537;SDS011;5317;49.048;8.468;2023-04-01T03:15:04;0.87;;;0.80;;
10537;SDS011;5317;49.048;8.468;2023-04-01T03:17:31;2.03;;;0.87;;
10537;SDS011;5317;49.048;8.468;2023-04-01T03:19:58;1.10;;;0.60;;
10537;SDS011;5317;49.048;8.468;2023-04-01T03:22:25;1.20;;;0.67;;
10537;SDS011;5317;49.048;8.468;2023-04-01T03:24:52;0.97;;;0.60;;
10537;SDS011;5317;49.048;8.468;2023-04-01T03:27:19;1.47;;;0.67;;
10537;SDS011;5317;49.048;8.468;2023-04-01T03:29:47;2.63;;;0.73;;
10537;SDS011;5317;49.048;8.468;2023-04-01T03:32:14;1.07;;;0.67;;
10537;SDS011;5317;49.048;8.468;2023-04-01T03:34:41;1.03;;;0.63;;
10537;SDS011;5317;49.048;8.468;2023-04-01T03:37:08;1.13;;;0.53;;
10537;SDS011;5317;49.048;8.468;2023-04-01T03:39:35;1.50;;;0.33;;
10537;SDS011;5317;49.048;8.468;2023-04-01T03:42:02;4.37;;;1.47;;
10537;SDS011;5317;49.048;8.468;2023-04-01T03:44:30;1.80;;;0.60;;
10537;SDS011;5317;49.048;8.468;2023-04-01T03:46:59;1.03;;;0.77;;
10537;SDS011;5317;49.048;8.468;2023-04-01T03:49:26;1.70;;;0.70;;
10537;SDS011;5317;49.048;8.468;2023-04-01T03:51:53;1.73;;;0.73;;
10537;SDS011;5317;49.048;8.468;2023-04-01T03:54:20;1.23;;;0.63;;
10537;SDS011;5317;49.048;8.468;2023-04-01T03:56:47;1.53;;;0.70;;
10537;SDS011;5317;49.048;8.468;2023-04-01T03:59:14;1.83;;;0.60;;
10537;SDS011;5317;49.048;8.468;2023-04-01T04:01:41;2.77;;;0.60;;
10537;SDS011;5317;49.048;8.468;2023-04-01T04:04:11;2.53;;;0.87;;
10537;SDS011;5317;49.048;8.468;2023-04-01T04:06:39;2.10;;;0.93;;
10537;SDS011;5317;49.048;8.468;2023-04-01T04:09:06;1.87;;;0.90;;
10537;SDS011;5317;49.048;8.468;2023-04-01T04:11:33;3.30;;;1.10;;
10537;SDS011;5317;49.048;8.468;2023-04-01T04:14:00;3.57;;;1.10;;
10537;SDS011;5317;49.048;8.468;2023-04-01T04:16:27;1.93;;;0.77;;
10537;SDS011;5317;49.048;8.468;2023-04-01T04:18:54;1.57;;;1.03;;
10537;SDS011;5317;49.048;8.468;2023-04-01T04:21:22;3.50;;;0.80;;
10537;SDS011;5317;49.048;8.468;2023-04-01T04:23:49;2.20;;;1.17;;
10537;SDS011;5317;49.048;8.468;2023-04-01T04:26:16;4.37;;;1.33;;
10537;SDS011;5317;49.048;8.468;2023-04-01T04:28:43;4.63;;;1.60;;
10537;SDS011;5317;49.048;8.468;2023-04-01T04:31:10;1.17;;;0.87;;
10537;SDS011;5317;49.048;8.468;2023-04-01T04:33:38;4.03;;;1.07;;
10537;SDS011;5317;49.048;8.468;2023-04-01T04:36:05;2.97;;;1.23;;
10537;SDS011;5317;49.048;8.468;2023-04-01T04:38:33;3.17;;;1.40;;
10537;SDS011;5317;49.048;8.468;2023-04-01T04:41:00;2.47;;;1.17;;
10537;SDS011;5317;49.048;8.468;2023-04-01T04:43:27;2.43;;;1.10;;
10537;SDS011;5317;49.048;8.468;2023-04-01T04:45:54;4.40;;;1.20;;
10537;SDS011;5317;49.048;8.468;2023-04-01T04:48:21;3.60;;;1.50;;
10537;SDS011;5317;49.048;8.468;2023-04-01T04:50:48;3.40;;;1.47;;
10537;SDS011;5317;49.048;8.468;2023-04-01T04:53:16;2.37;;;1.43;;
10537;SDS011;5317;49.048;8.468;2023-04-01T04:55:49;3.10;;;1.20;;
10537;SDS011;5317;49.048;8.468;2023-04-01T04:58:16;2.00;;;0.90;;
10537;SDS011;5317;49.048;8.468;2023-04-01T05:00:44;4.87;;;1.50;;
10537;SDS011;5317;49.048;8.468;2023-04-01T05:03:11;2.03;;;1.23;;
10537;SDS011;5317;49.048;8.468;2023-04-01T05:05:38;2.57;;;1.37;;
10537;SDS011;5317;49.048;8.468;2023-04-01T05:08:06;2.80;;;1.07;;
10537;SDS011;5317;49.048;8.468;2023-04-01T05:10:32;4.70;;;1.40;;
10537;SDS011;5317;49.048;8.468;2023-04-01T05:13:01;2.07;;;1.30;;
10537;SDS011;5317;49.048;8.468;2023-04-01T05:15:27;1.97;;;0.90;;
10537;SDS011;5317;49.048;8.468;2023-04-01T05:17:54;2.87;;;1.17;;
10537;SDS011;5317;49.048;8.468;2023-04-01T05:20:21;3.20;;;1.27;;
10537;SDS011;5317;49.048;8.468;2023-04-01T05:22:48;1.97;;;0.80;;
10537;SDS011;5317;49.048;8.468;2023-04-01T05:25:15;1.97;;;1.20;;
10537;SDS011;5317;49.048;8.468;2023-04-01T05:27:42;2.33;;;1.00;;
10537;SDS011;5317;49.048;8.468;2023-04-01T05:30:11;2.67;;;0.90;;
10537;SDS011;5317;49.048;8.468;2023-04-01T05:32:38;1.87;;;1.20;;
10537;SDS011;5317;49.048;8.468;2023-04-01T05:35:05;1.53;;;0.60;;
10537;SDS011;5317;49.048;8.468;2023-04-01T05:37:33;1.80;;;0.80;;
10537;SDS011;5317;49.048;8.468;2023-04-01T05:40:00;2.33;;;0.73;;
10537;SDS011;5317;49.048;8.468;2023-04-01T05:42:27;2.67;;;0.70;;
10537;SDS011;5317;49.048;8.468;2023-04-01T05:44:54;1.70;;;0.87;;
10537;SDS011;5317;49.048;8.468;2023-04-01T05:47:22;1.20;;;0.70;;
10537;SDS011;5317;49.048;8.468;2023-04-01T05:49:49;2.40;;;0.60;;
10537;SDS011;5317;49.048;8.468;2023-04-01T05:52:16;2.30;;;0.80;;
10537;SDS011;5317;49.048;8.468;2023-04-01T05:54:46;3.97;;;0.87;;
10537;SDS011;5317;49.048;8.468;2023-04-01T05:57:13;1.57;;;0.63;;
10537;SDS011;5317;49.048;8.468;2023-04-01T05:59:40;2.07;;;0.80;;
10537;SDS011;5317;49.048;8.468;2023-04-01T06:02:07;1.97;;;0.80;;
10537;SDS011;5317;49.048;8.468;2023-04-01T06:04:37;1.17;;;0.80;;
10537;SDS011;5317;49.048;8.468;2023-04-01T06:07:10;3.67;;;0.90;;
10537;SDS011;5317;49.048;8.468;2023-04-01T06:09:38;1.53;;;0.80;;
10537;SDS011;5317;49.048;8.468;2023-04-01T06:12:13;2.37;;;1.00;;
10537;SDS011;5317;49.048;8.468;2023-04-01T06:15:18;1.60;;;0.97;;
10537;SDS011;5317;49.048;8.468;2023-04-01T06:17:54;1.33;;;0.90;;
10537;SDS011;5317;49.048;8.468;2023-04-01T06:20:48;1.17;;;0.80;;
10537;SDS011;5317;49.048;8.468;2023-04-01T06:23:24;0.80;;;0.60;;
10537;SDS011;5317;49.048;8.468;2023-04-01T06:26:04;1.40;;;0.70;;
10537;SDS011;5317;49.048;8.468;2023-04-01T06:31:59;3.40;;;1.10;;
10537;SDS011;5317;49.048;8.468;2023-04-01T06:34:48;1.33;;;0.90;;
10537;SDS011;5317;49.048;8.468;2023-04-01T06:37:33;2.20;;;1.10;;
10537;SDS011;5317;49.048;8.468;2023-04-01T06:40:28;2.13;;;1.13;;
10537;SDS011;5317;49.048;8.468;2023-04-01T06:43:10;2.47;;;0.80;;
10537;SDS011;5317;49.048;8.468;2023-04-01T06:45:47;1.53;;;0.90;;
10537;SDS011;5317;49.048;8.468;2023-04-01T06:48:27;1.00;;;0.90;;
10537;SDS011;5317;49.048;8.468;2023-04-01T06:51:06;3.53;;;1.23;;
10537;SDS011;5317;49.048;8.468;2023-04-01T06:53:45;2.10;;;1.13;;
10537;SDS011;5317;49.048;8.468;2023-04-01T06:56:18;1.97;;;1.03;;
10537;SDS011;5317;49.048;8.468;2023-04-01T06:58:48;2.43;;;1.07;;
10537;SDS011;5317;49.048;8.468;2023-04-01T07:01:20;1.20;;;1.10;;
10537;SDS011;5317;49.048;8.468;2023-04-01T07:03:53;3.50;;;1.03;;
10537;SDS011;5317;49.048;8.468;2023-04-01T07:06:25;2.00;;;1.10;;
10537;SDS011;5317;49.048;8.468;2023-04-01T07:08:59;2.27;;;1.27;;
10537;SDS011;5317;49.048;8.468;2023-04-01T07:11:31;2.20;;;1.00;;
10537;SDS011;5317;49.048;8.468;2023-04-01T07:14:01;1.87;;;1.07;;
10537;SDS011;5317;49.048;8.468;2023-04-01T07:16:32;1.83;;;0.97;;
10537;SDS011;5317;49.048;8.468;2023-04-01T07:19:01;3.70;;;1.10;;
10537;SDS011;5317;49.048;8.468;2023-04-01T07:21:33;1.43;;;0.97;;
10537;SDS011;5317;49.048;8.468;2023-04-01T07:24:09;2.40;;;0.93;;
10537;SDS011;5317;49.048;8.468;2023-04-01T07:26:42;2.83;;;1.37;;
10537;SDS011;5317;49.048;8.468;2023-04-01T07:29:09;2.33;;;1.10;;
10537;SDS011;5317;49.048;8.468;2023-04-01T07:34:35;3.37;;;1.20;;
10537;SDS011;5317;49.048;8.468;2023-04-01T07:37:11;2.03;;;1.17;;
10537;SDS011;5317;49.048;8.468;2023-04-01T07:39:43;3.57;;;1.30;;
10537;SDS011;5317;49.048;8.468;2023-04-01T07:42:20;4.10;;;1.50;;
10537;SDS011;5317;49.048;8.468;2023-04-01T07:44:59;2.93;;;1.67;;
10537;SDS011;5317;49.048;8.468;2023-04-01T07:47:42;2.47;;;1.00;;
10537;SDS011;5317;49.048;8.468;2023-04-01T07:50:18;2.93;;;1.20;;
10537;SDS011;5317;49.048;8.468;2023-04-01T07:52:54;2.80;;;1.40;;
10537;SDS011;5317;49.048;8.468;2023-04-01T07:55:33;2.40;;;1.03;;
10537;SDS011;5317;49.048;8.468;2023-04-01T07:58:10;2.77;;;1.00;;
10537;SDS011;5317;49.048;8.468;2023-04-01T08:00:44;3.03;;;1.23;;
10537;SDS011;5317;49.048;8.468;2023-04-01T08:03:25;3.03;;;1.47;;
10537;SDS011;5317;49.048;8.468;2023-04-01T08:06:00;1.97;;;1.10;;
10537;SDS011;5317;49.048;8.468;2023-04-01T08:08:35;1.83;;;1.00;;
10537;SDS011;5317;49.048;8.468;2023-04-01T08:11:13;1.33;;;0.73;;
10537;SDS011;5317;49.048;8.468;2023-04-01T08:13:50;2.27;;;1.10;;
10537;SDS011;5317;49.048;8.468;2023-04-01T08:16:29;2.50;;;1.10;;
10537;SDS011;5317;49.048;8.468;2023-04-01T08:19:02;3.27;;;1.00;;
10537;SDS011;5317;49.048;8.468;2023-04-01T08:21:41;3.47;;;1.07;;
10537;SDS011;5317;49.048;8.468;2023-04-01T08:24:16;4.23;;;1.30;;
10537;SDS011;5317;49.048;8.468;2023-04-01T08:26:48;1.33;;;1.20;;
10537;SDS011;5317;49.048;8.468;2023-04-01T08:29:19;2.80;;;1.27;;
10537;SDS011;5317;49.048;8.468;2023-04-01T08:31:48;3.17;;;1.10;;
10537;SDS011;5317;49.048;8.468;2023-04-01T08:34:21;4.70;;;1.90;;
10537;SDS011;5317;49.048;8.468;2023-04-01T08:36:52;0.77;;;0.73;;
10537;SDS011;5317;49.048;8.468;2023-04-01T08:39:28;2.07;;;1.10;;
10537;SDS011;5317;49.048;8.468;2023-04-01T08:42:03;1.20;;;0.90;;
10537;SDS011;5317;49.048;8.468;2023-04-01T08:47:52;3.13;;;1.47;;
10537;SDS011;5317;49.048;8.468;2023-04-01T08:50:55;2.43;;;1.10;;
10537;SDS011;5317;49.048;8.468;2023-04-01T08:53:51;2.70;;;1.20;;
10537;SDS011;5317;49.048;8.468;2023-04-01T08:56:34;3.33;;;1.40;;
10537;SDS011;5317;49.048;8.468;2023-04-01T08:59:14;2.20;;;1.20;;
10537;SDS011;5317;49.048;8.468;2023-04-01T09:05:03;4.40;;;1.43;;
10537;SDS011;5317;49.048;8.468;2023-04-01T09:07:45;2.80;;;0.93;;
10537;SDS011;5317;49.048;8.468;2023-04-01T09:16:13;2.77;;;1.50;;
10537;SDS011;5317;49.048;8.468;2023-04-01T09:19:15;1.70;;;1.20;;
10537;SDS011;5317;49.048;8.468;2023-04-01T09:21:58;2.57;;;1.10;;
10537;SDS011;5317;49.048;8.468;2023-04-01T09:24:41;1.37;;;0.93;;
10537;SDS011;5317;49.048;8.468;2023-04-01T09:27:19;2.03;;;0.90;;
10537;SDS011;5317;49.048;8.468;2023-04-01T09:30:02;1.23;;;0.73;;
10537;SDS011;5317;49.048;8.468;2023-04-01T09:32:51;1.33;;;0.73;;
10537;SDS011;5317;49.048;8.468;2023-04-01T09:35:50;1.77;;;1.00;;
10537;SDS011;5317;49.048;8.468;2023-04-01T09:38:28;1.10;;;0.80;;
10537;SDS011;5317;49.048;8.468;2023-04-01T09:40:56;1.67;;;1.10;;
10537;SDS011;5317;49.048;8.468;2023-04-01T09:43:28;1.47;;;0.83;;
10537;SDS011;5317;49.048;8.468;2023-04-01T09:46:06;1.43;;;0.80;;
10537;SDS011;5317;49.048;8.468;2023-04-01T09:48:50;2.50;;;1.10;;
10537;SDS011;5317;49.048;8.468;2023-04-01T09:51:40;2.57;;;1.10;;
10537;SDS011;5317;49.048;8.468;2023-04-01T09:54:21;1.07;;;0.93;;
10537;SDS011;5317;49.048;8.468;2023-04-01T09:57:09;1.37;;;0.73;;
10537;SDS011;5317;49.048;8.468;2023-04-01T10:00:17;1.60;;;0.93;;
10537;SDS011;5317;49.048;8.468;2023-04-01T10:03:02;2.10;;;0.70;;
10537;SDS011;5317;49.048;8.468;2023-04-01T10:18:33;1.53;;;1.20;;
10537;SDS011;5317;49.048;8.468;2023-04-01T10:21:29;1.37;;;1.00;;
10537;SDS011;5317;49.048;8.468;2023-04-01T10:24:25;2.00;;;0.93;;
10537;SDS011;5317;49.048;8.468;2023-04-01T10:27:09;0.93;;;0.90;;
10537;SDS011;5317;49.048;8.468;2023-04-01T10:29:54;1.27;;;1.17;;
10537;SDS011;5317;49.048;8.468;2023-04-01T10:32:58;1.47;;;1.30;;
10537;SDS011;5317;49.048;8.468;2023-04-01T10:45:05;0.83;;;0.73;;
10537;SDS011;5317;49.048;8.468;2023-04-01T10:48:12;1.27;;;0.93;;
10537;SDS011;5317;49.048;8.468;2023-04-01T10:51:11;2.37;;;0.90;;
10537;SDS011;5317;49.048;8.468;2023-04-01T10:54:03;1.87;;;1.10;;
10537;SDS011;5317;49.048;8.468;2023-04-01T10:56:54;2.03;;;1.20;;
10537;SDS011;5317;49.048;8.468;2023-04-01T11:02:44;1.00;;;0.90;;
10537;SDS011;5317;49.048;8.468;2023-04-01T11:12:15;2.00;;;1.10;;
10537;SDS011;5317;49.048;8.468;2023-04-01T11:15:09;1.97;;;0.97;;
10537;SDS011;5317;49.048;8.468;2023-04-01T11:18:10;1.07;;;0.90;;
10537;SDS011;5317;49.048;8.468;2023-04-01T11:21:11;3.23;;;1.03;;
10537;SDS011;5317;49.048;8.468;2023-04-01T11:27:15;1.17;;;0.80;;
10537;SDS011;5317;49.048;8.468;2023-04-01T11:32:57;1.50;;;1.10;;
10537;SDS011;5317;49.048;8.468;2023-04-01T11:35:38;1.50;;;1.20;;
10537;SDS011;5317;49.048;8.468;2023-04-01T11:38:26;3.10;;;1.47;;
10537;SDS011;5317;49.048;8.468;2023-04-01T11:41:08;1.73;;;1.43;;
10537;SDS011;5317;49.048;8.468;2023-04-01T11:43:48;2.47;;;1.57;;
10537;SDS011;5317;49.048;8.468;2023-04-01T11:46:30;3.03;;;1.97;;
10537;SDS011;5317;49.048;8.468;2023-04-01T11:49:07;1.33;;;1.23;;
10537;SDS011;5317;49.048;8.468;2023-04-01T11:52:08;1.23;;;1.10;;
10537;SDS011;5317;49.048;8.468;2023-04-01T11:55:02;4.57;;;2.47;;
10537;SDS011;5317;49.048;8.468;2023-04-01T11:57:56;3.70;;;1.83;;
10537;SDS011;5317;49.048;8.468;2023-04-01T12:00:42;4.37;;;1.17;;
10537;SDS011;5317;49.048;8.468;2023-04-01T12:03:32;4.03;;;2.10;;
10537;SDS011;5317;49.048;8.468;2023-04-01T12:06:08;3.33;;;1.77;;
10537;SDS011;5317;49.048;8.468;2023-04-01T12:08:46;2.53;;;1.50;;
10537;SDS011;5317;49.048;8.468;2023-04-01T12:11:23;1.60;;;1.27;;
10537;SDS011;5317;49.048;8.468;2023-04-01T12:13:58;0.93;;;0.70;;
10537;SDS011;5317;49.048;8.468;2023-04-01T12:19:24;1.37;;;1.20;;
10537;SDS011;5317;49.048;8.468;2023-04-01T12:22:04;1.23;;;1.00;;
10537;SDS011;5317;49.048;8.468;2023-04-01T12:24:47;1.90;;;1.17;;
10537;SDS011;5317;49.048;8.468;2023-04-01T12:27:26;1.47;;;1.07;;
10537;SDS011;5317;49.048;8.468;2023-04-01T12:33:29;1.60;;;1.23;;
10537;SDS011;5317;49.048;8.468;2023-04-01T12:39:07;3.50;;;0.90;;
10537;SDS011;5317;49.048;8.468;2023-04-01T12:41:48;1.50;;;0.83;;
10537;SDS011;5317;49.048;8.468;2023-04-01T12:47:28;4.23;;;0.93;;
10537;SDS011;5317;49.048;8.468;2023-04-01T12:53:23;1.53;;;1.00;;
10537;SDS011;5317;49.048;8.468;2023-04-01T12:56:06;1.90;;;1.07;;
10537;SDS011;5317;49.048;8.468;2023-04-01T12:58:51;1.60;;;1.10;;
10537;SDS011;5317;49.048;8.468;2023-04-01T13:07:37;1.00;;;0.90;;
10537;SDS011;5317;49.048;8.468;2023-04-01T13:10:18;2.27;;;1.13;;
10537;SDS011;5317;49.048;8.468;2023-04-01T13:13:00;1.63;;;0.60;;
10537;SDS011;5317;49.048;8.468;2023-04-01T13:15:44;1.00;;;0.70;;
10537;SDS011;5317;49.048;8.468;2023-04-01T13:18:18;0.90;;;0.90;;
10537;SDS011;5317;49.048;8.468;2023-04-01T13:20:54;1.10;;;0.90;;
10537;SDS011;5317;49.048;8.468;2023-04-01T13:23:36;0.70;;;0.70;;
10537;SDS011;5317;49.048;8.468;2023-04-01T13:26:13;0.90;;;0.80;;
10537;SDS011;5317;49.048;8.468;2023-04-01T13:28:48;0.93;;;0.90;;
10537;SDS011;5317;49.048;8.468;2023-04-01T13:31:25;2.10;;;1.70;;
10537;SDS011;5317;49.048;8.468;2023-04-01T13:34:06;1.03;;;0.93;;
10537;SDS011;5317;49.048;8.468;2023-04-01T13:36:46;1.23;;;1.10;;
10537;SDS011;5317;49.048;8.468;2023-04-01T13:39:25;1.17;;;0.60;;
10537;SDS011;5317;49.048;8.468;2023-04-01T13:42:08;1.33;;;1.20;;
10537;SDS011;5317;49.048;8.468;2023-04-01T13:44:44;1.20;;;1.10;;
10537;SDS011;5317;49.048;8.468;2023-04-01T13:47:23;6.53;;;3.30;;
10537;SDS011;5317;49.048;8.468;2023-04-01T13:50:34;1.47;;;0.87;;
10537;SDS011;5317;49.048;8.468;2023-04-01T13:53:23;4.13;;;2.40;;
10537;SDS011;5317;49.048;8.468;2023-04-01T13:56:16;3.57;;;2.27;;
10537;SDS011;5317;49.048;8.468;2023-04-01T13:58:57;1.83;;;1.50;;
10537;SDS011;5317;49.048;8.468;2023-04-01T14:01:35;4.37;;;2.20;;
10537;SDS011;5317;49.048;8.468;2023-04-01T14:04:21;2.60;;;1.80;;
10537;SDS011;5317;49.048;8.468;2023-04-01T14:07:08;1.10;;;1.00;;
10537;SDS011;5317;49.048;8.468;2023-04-01T14:09:45;2.83;;;1.90;;
10537;SDS011;5317;49.048;8.468;2023-04-01T14:12:31;1.93;;;1.50;;
10537;SDS011;5317;49.048;8.468;2023-04-01T14:15:16;6.90;;;3.37;;
10537;SDS011;5317;49.048;8.468;2023-04-01T14:17:57;3.87;;;2.10;;
10537;SDS011;5317;49.048;8.468;2023-04-01T14:20:41;1.63;;;1.17;;
10537;SDS011;5317;49.048;8.468;2023-04-01T14:23:28;1.70;;;1.60;;
10537;SDS011;5317;49.048;8.468;2023-04-01T14:26:19;1.50;;;1.00;;
10537;SDS011;5317;49.048;8.468;2023-04-01T14:29:10;1.23;;;1.13;;
10537;SDS011;5317;49.048;8.468;2023-04-01T14:31:50;1.30;;;1.20;;
10537;SDS011;5317;49.048;8.468;2023-04-01T14:34:28;1.10;;;1.03;;
10537;SDS011;5317;49.048;8.468;2023-04-01T14:37:14;1.13;;;0.73;;
10537;SDS011;5317;49.048;8.468;2023-04-01T14:40:03;1.27;;;1.13;;
10537;SDS011;5317;49.048;8.468;2023-04-01T14:42:49;1.40;;;1.03;;
10537;SDS011;5317;49.048;8.468;2023-04-01T14:45:29;1.17;;;0.97;;
10537;SDS011;5317;49.048;8.468;2023-04-01T14:48:21;0.80;;;0.80;;
10537;SDS011;5317;49.048;8.468;2023-04-01T14:50:55;0.73;;;0.73;;
10537;SDS011;5317;49.048;8.468;2023-04-01T14:53:30;1.20;;;1.10;;
10537;SDS011;5317;49.048;8.468;2023-04-01T14:56:03;1.10;;;0.80;;
10537;SDS011;5317;49.048;8.468;2023-04-01T14:58:39;1.40;;;1.17;;
10537;SDS011;5317;49.048;8.468;2023-04-01T15:01:16;1.17;;;1.10;;
10537;SDS011;5317;49.048;8.468;2023-04-01T15:04:09;1.37;;;1.17;;
10537;SDS011;5317;49.048;8.468;2023-04-01T15:07:01;2.20;;;1.87;;
10537;SDS011;5317;49.048;8.468;2023-04-01T15:09:35;3.70;;;2.67;;
10537;SDS011;5317;49.048;8.468;2023-04-01T15:12:12;1.57;;;1.00;;
10537;SDS011;5317;49.048;8.468;2023-04-01T15:14:50;1.53;;;1.10;;
10537;SDS011;5317;49.048;8.468;2023-04-01T15:17:31;1.30;;;1.03;;
10537;SDS011;5317;49.048;8.468;2023-04-01T15:20:16;1.47;;;1.27;;
10537;SDS011;5317;49.048;8.468;2023-04-01T15:23:06;1.20;;;1.03;;
10537;SDS011;5317;49.048;8.468;2023-04-01T15:25:45;2.50;;;1.10;;
10537;SDS011;5317;49.048;8.468;2023-04-01T15:28:29;2.53;;;2.03;;
10537;SDS011;5317;49.048;8.468;2023-04-01T15:31:06;1.60;;;1.50;;
10537;SDS011;5317;49.048;8.468;2023-04-01T15:33:40;1.80;;;1.50;;
10537;SDS011;5317;49.048;8.468;2023-04-01T15:36:23;3.83;;;2.47;;
10537;SDS011;5317;49.048;8.468;2023-04-01T15:38:59;2.73;;;1.40;;
10537;SDS011;5317;49.048;8.468;2023-04-01T15:41:39;3.17;;;1.80;;
10537;SDS011;5317;49.048;8.468;2023-04-01T15:44:27;3.30;;;1.70;;
10537;SDS011;5317;49.048;8.468;2023-04-01T15:47:23;1.20;;;0.97;;
10537;SDS011;5317;49.048;8.468;2023-04-01T15:49:59;1.27;;;1.10;;
10537;SDS011;5317;49.048;8.468;2023-04-01T15:52:48;3.00;;;2.20;;
10537;SDS011;5317;49.048;8.468;2023-04-01T15:55:19;2.90;;;1.50;;
10537;SDS011;5317;49.048;8.468;2023-04-01T15:57:55;3.23;;;1.50;;
10537;SDS011;5317;49.048;8.468;2023-04-01T16:00:30;1.37;;;1.07;;
10537;SDS011;5317;49.048;8.468;2023-04-01T16:03:10;1.50;;;1.40;;
10537;SDS011;5317;49.048;8.468;2023-04-01T16:08:56;2.33;;;1.77;;
10537;SDS011;5317;49.048;8.468;2023-04-01T16:11:48;2.87;;;1.80;;
10537;SDS011;5317;49.048;8.468;2023-04-01T16:14:33;2.23;;;1.47;;
10537;SDS011;5317;49.048;8.468;2023-04-01T16:17:12;1.10;;;0.90;;
10537;SDS011;5317;49.048;8.468;2023-04-01T16:19:53;1.47;;;1.17;;
10537;SDS011;5317;49.048;8.468;2023-04-01T16:22:27;2.60;;;1.87;;
10537;SDS011;5317;49.048;8.468;2023-04-01T16:25:01;1.50;;;1.40;;
10537;SDS011;5317;49.048;8.468;2023-04-01T16:27:44;3.87;;;2.40;;
10537;SDS011;5317;49.048;8.468;2023-04-01T16:30:25;2.63;;;2.00;;
10537;SDS011;5317;49.048;8.468;2023-04-01T16:33:00;2.83;;;2.53;;
10537;SDS011;5317;49.048;8.468;2023-04-01T16:35:35;6.00;;;4.33;;
10537;SDS011;5317;49.048;8.468;2023-04-01T16:38:09;6.13;;;2.93;;
10537;SDS011;5317;49.048;8.468;2023-04-01T16:40:44;4.63;;;2.33;;
10537;SDS011;5317;49.048;8.468;2023-04-01T16:43:20;4.17;;;3.70;;
10537;SDS011;5317;49.048;8.468;2023-04-01T16:46:02;2.90;;;2.20;;
10537;SDS011;5317;49.048;8.468;2023-04-01T16:49:00;3.80;;;2.70;;
10537;SDS011;5317;49.048;8.468;2023-04-01T16:51:35;5.17;;;3.20;;
10537;SDS011;5317;49.048;8.468;2023-04-01T16:54:12;4.37;;;2.33;;
10537;SDS011;5317;49.048;8.468;2023-04-01T16:56:44;2.00;;;1.80;;
10537;SDS011;5317;49.048;8.468;2023-04-01T16:59:18;3.20;;;1.80;;
10537;SDS011;5317;49.048;8.468;2023-04-01T17:01:51;1.73;;;1.63;;
10537;SDS011;5317;49.048;8.468;2023-04-01T17:04:27;1.83;;;1.70;;
10537;SDS011;5317;49.048;8.468;2023-04-01T17:07:01;2.47;;;1.40;;
10537;SDS011;5317;49.048;8.468;2023-04-01T17:09:44;2.20;;;1.60;;
10537;SDS011;5317;49.048;8.468;2023-04-01T17:12:27;2.57;;;1.20;;
10537;SDS011;5317;49.048;8.468;2023-04-01T17:15:02;2.07;;;1.80;;
10537;SDS011;5317;49.048;8.468;2023-04-01T17:17:40;1.07;;;1.00;;
10537;SDS011;5317;49.048;8.468;2023-04-01T17:20:13;2.23;;;1.40;;
10537;SDS011;5317;49.048;8.468;2023-04-01T17:22:51;1.47;;;1.00;;